createdAt,value
2018-06-27T00:01:31.156Z,62.40
2018-06-27T00:04:00.176Z,62.30
2018-06-27T00:06:29.142Z,64.20
2018-06-27T00:08:58.097Z,66.10
2018-06-27T00:11:27.155Z,62.20
2018-06-27T00:13:56.172Z,63.60
2018-06-27T00:16:25.755Z,62.30
2018-06-27T00:18:54.739Z,62.60
2018-06-27T00:21:23.781Z,63.80
2018-06-27T00:23:52.818Z,63.20
2018-06-27T00:26:21.789Z,66.10
2018-06-27T00:28:50.817Z,65.70
2018-06-27T00:31:19.861Z,66.10
2018-06-27T00:33:48.859Z,62.90
2018-06-27T00:36:17.841Z,63.30
2018-06-27T00:41:15.495Z,64.50
2018-06-27T00:43:44.473Z,63.10
2018-06-27T00:46:13.544Z,64.40
2018-06-27T00:48:42.537Z,64.10
2018-06-27T00:51:11.572Z,67.00
2018-06-27T00:53:45.909Z,65.30
2018-06-27T00:56:14.911Z,68.30
2018-06-27T00:58:43.899Z,67.60
2018-06-27T01:01:13.157Z,66.20
2018-06-27T01:03:42.213Z,66.80
2018-06-27T01:06:11.301Z,65.40
2018-06-27T01:08:40.320Z,64.80
2018-06-27T01:11:09.429Z,66.20
2018-06-27T01:13:38.431Z,67.80
2018-06-27T01:16:07.564Z,67.70
2018-06-27T01:18:36.599Z,66.80
2018-06-27T01:21:05.605Z,69.00
2018-06-27T01:23:34.680Z,64.50
2018-06-27T01:26:03.785Z,63.20
2018-06-27T01:28:32.776Z,66.00
2018-06-27T01:31:01.800Z,65.40
2018-06-27T01:33:31.888Z,63.80
2018-06-27T01:36:00.888Z,64.10
2018-06-27T01:38:29.878Z,65.30
2018-06-27T01:40:58.858Z,65.00
2018-06-27T01:43:27.854Z,63.40
2018-06-27T01:45:56.896Z,64.40
2018-06-27T01:48:25.877Z,64.80
2018-06-27T01:50:54.872Z,64.60
2018-06-27T01:53:23.916Z,63.70
2018-06-27T01:55:52.902Z,68.50
2018-06-27T01:58:21.904Z,65.60
2018-06-27T02:00:50.904Z,69.30
2018-06-27T02:03:19.966Z,71.70
2018-06-27T02:05:48.942Z,69.80
2018-06-27T02:08:17.922Z,66.70
2018-06-27T02:10:46.932Z,68.50
2018-06-27T02:13:15.970Z,68.20
2018-06-27T02:15:44.962Z,69.90
2018-06-27T02:18:14.048Z,66.20
2018-06-27T02:20:43.058Z,68.00
2018-06-27T02:23:12.894Z,66.90
2018-06-27T02:25:42.141Z,66.60
2018-06-27T02:28:11.752Z,68.10
2018-06-27T02:30:40.906Z,70.80
2018-06-27T02:33:10.591Z,68.40
2018-06-27T02:35:39.586Z,67.10
2018-06-27T02:38:08.600Z,65.80
2018-06-27T02:40:37.662Z,68.80
2018-06-27T02:43:06.764Z,69.90
2018-06-27T02:45:35.866Z,69.30
2018-06-27T02:48:04.839Z,68.20
2018-06-27T02:50:33.948Z,68.10
2018-06-27T02:53:02.946Z,68.20
2018-06-27T02:55:32.040Z,69.10
2018-06-27T02:58:01.016Z,69.30
2018-06-27T03:00:30.055Z,74.30
2018-06-27T03:02:59.233Z,71.90
2018-06-27T03:05:28.321Z,69.40
2018-06-27T03:07:57.314Z,72.10
2018-06-27T03:10:26.317Z,73.40
2018-06-27T03:12:55.318Z,70.90
2018-06-27T03:15:24.302Z,69.40
2018-06-27T03:17:53.260Z,68.90
2018-06-27T03:20:22.247Z,70.70
2018-06-27T03:22:51.269Z,71.80
2018-06-27T03:25:20.290Z,72.70
2018-06-27T03:27:49.274Z,72.80
2018-06-27T03:30:18.358Z,74.70
2018-06-27T03:32:47.402Z,75.10
2018-06-27T03:35:16.381Z,73.10
2018-06-27T03:37:45.437Z,75.70
2018-06-27T03:40:14.433Z,73.50
2018-06-27T03:42:43.453Z,73.80
2018-06-27T03:45:12.502Z,74.80
2018-06-27T03:47:41.497Z,72.60
2018-06-27T03:50:10.490Z,71.10
2018-06-27T03:52:44.588Z,74.80
2018-06-27T03:55:13.805Z,77.10
2018-06-27T03:57:42.849Z,71.10
2018-06-27T04:00:11.942Z,72.90
2018-06-27T04:02:41.342Z,70.00
2018-06-27T04:05:10.348Z,73.00
2018-06-27T04:07:39.323Z,72.50
2018-06-27T04:10:09.614Z,71.10
2018-06-27T04:12:38.677Z,76.50
2018-06-27T04:15:08.238Z,71.80
2018-06-27T04:17:37.245Z,71.50
2018-06-27T04:20:06.316Z,71.40
2018-06-27T04:22:36.061Z,73.00
2018-06-27T04:25:05.258Z,73.10
2018-06-27T04:27:34.282Z,70.30
2018-06-27T04:30:03.889Z,74.10
2018-06-27T04:32:32.885Z,74.90
2018-06-27T04:35:01.938Z,74.00
2018-06-27T04:37:31.266Z,74.70
2018-06-27T04:42:28.985Z,72.50
2018-06-27T04:44:58.061Z,72.90
2018-06-27T04:47:27.013Z,75.30
2018-06-27T04:49:56.001Z,76.80
2018-06-27T04:52:25.017Z,75.20
2018-06-27T04:54:54.072Z,75.90
2018-06-27T04:57:23.093Z,75.80
2018-06-27T04:59:52.110Z,77.20
2018-06-27T05:02:21.129Z,77.00
2018-06-27T05:04:50.253Z,75.90
2018-06-27T05:07:19.236Z,76.10
2018-06-27T05:09:48.244Z,75.40
2018-06-27T05:12:17.247Z,73.70
2018-06-27T05:14:46.400Z,74.30
2018-06-27T05:17:15.417Z,72.60
2018-06-27T05:19:44.658Z,71.80
2018-06-27T05:22:14.442Z,71.30
2018-06-27T05:24:44.015Z,70.60
2018-06-27T05:27:12.997Z,69.90
2018-06-27T05:29:42.064Z,69.60
2018-06-27T05:32:11.031Z,68.60
2018-06-27T05:34:40.073Z,67.00
2018-06-27T05:37:09.016Z,65.50
2018-06-27T05:39:37.998Z,65.30
2018-06-27T05:42:07.028Z,64.20
2018-06-27T05:44:36.397Z,64.90
2018-06-27T05:47:05.428Z,64.00
2018-06-27T05:49:34.416Z,64.20
2018-06-27T05:52:03.394Z,64.40
2018-06-27T05:54:32.424Z,64.30
2018-06-27T05:57:01.466Z,64.60
2018-06-27T05:59:30.436Z,64.50
2018-06-27T06:01:59.424Z,64.90
2018-06-27T06:04:28.720Z,65.50
2018-06-27T06:06:57.540Z,66.40
2018-06-27T06:09:26.534Z,66.10
2018-06-27T06:11:55.588Z,67.60
2018-06-27T06:14:24.624Z,68.10
2018-06-27T06:16:53.644Z,68.20
2018-06-27T06:19:22.635Z,67.60
2018-06-27T06:21:51.676Z,69.10
2018-06-27T06:24:20.680Z,68.20
2018-06-27T06:26:49.869Z,68.80
2018-06-27T06:29:18.862Z,68.10
2018-06-27T06:31:47.873Z,69.70
2018-06-27T06:34:16.888Z,69.50
2018-06-27T06:36:45.875Z,69.60
2018-06-27T06:39:14.886Z,70.50
2018-06-27T06:41:43.882Z,69.80
2018-06-27T06:44:13.006Z,70.50
2018-06-27T06:46:42.076Z,70.10
2018-06-27T06:49:11.174Z,69.90
2018-06-27T06:51:40.202Z,69.80
2018-06-27T06:54:09.224Z,70.00
2018-06-27T06:56:38.257Z,69.80
2018-06-27T07:01:35.928Z,69.10
2018-06-27T07:04:05.098Z,68.90
2018-06-27T07:06:34.127Z,69.50
2018-06-27T07:09:03.354Z,69.50
2018-06-27T07:11:32.358Z,70.00
2018-06-27T07:14:01.366Z,69.60
2018-06-27T07:16:30.402Z,69.70
2018-06-27T07:18:59.381Z,69.70
2018-06-27T07:21:29.660Z,69.80
2018-06-27T07:23:58.672Z,68.70
2018-06-27T07:26:27.854Z,69.50
2018-06-27T07:28:56.914Z,68.90
2018-06-27T07:33:55.073Z,69.80
2018-06-27T07:36:24.140Z,69.90
2018-06-27T07:38:53.177Z,69.60
2018-06-27T07:41:22.220Z,69.80
2018-06-27T07:43:51.222Z,69.40
2018-06-27T07:46:20.305Z,69.50
2018-06-27T07:48:49.316Z,69.30
2018-06-27T07:51:19.172Z,69.00
2018-06-27T07:53:48.222Z,68.90
2018-06-27T07:56:17.262Z,68.60
2018-06-27T07:58:46.238Z,68.50
2018-06-27T08:01:15.217Z,68.80
2018-06-27T08:03:44.229Z,68.60
2018-06-27T08:06:13.313Z,68.30
2018-06-27T08:08:42.366Z,69.00
2018-06-27T08:11:11.389Z,68.40
2018-06-27T08:13:40.463Z,68.00
2018-06-27T08:16:09.588Z,68.20
2018-06-27T08:18:42.611Z,68.60
2018-06-27T08:21:11.758Z,68.60
2018-06-27T08:23:40.961Z,67.80
2018-06-27T08:26:10.103Z,68.10
2018-06-27T08:28:39.127Z,68.40
2018-06-27T08:31:08.533Z,68.20
2018-06-27T08:33:37.933Z,67.90
2018-06-27T08:36:07.363Z,67.90
2018-06-27T08:38:36.739Z,67.40
2018-06-27T08:41:06.181Z,67.80
2018-06-27T08:43:35.466Z,66.50
2018-06-27T08:46:04.911Z,67.00
2018-06-27T08:48:34.097Z,67.30
2018-06-27T08:51:03.241Z,67.40
2018-06-27T08:53:32.542Z,67.10
2018-06-27T08:56:02.419Z,66.90
2018-06-27T08:58:31.755Z,67.10
2018-06-27T09:01:00.851Z,67.00
2018-06-27T09:03:30.049Z,66.50
2018-06-27T09:05:59.277Z,65.90
2018-06-27T09:08:28.549Z,66.20
2018-06-27T09:10:57.573Z,66.00
2018-06-27T09:13:26.622Z,66.20
2018-06-27T09:15:55.617Z,66.00
2018-06-27T09:18:24.641Z,65.90
2018-06-27T09:20:53.801Z,65.30
2018-06-27T09:23:22.834Z,65.40
2018-06-27T09:25:51.899Z,65.10
2018-06-27T09:28:20.919Z,64.90
2018-06-27T09:30:49.901Z,65.50
2018-06-27T09:33:18.879Z,65.50
2018-06-27T09:35:47.898Z,64.80
2018-06-27T09:38:16.979Z,64.40
2018-06-27T09:40:46.075Z,64.00
2018-06-27T09:43:15.149Z,63.50
2018-06-27T09:45:44.209Z,63.90
2018-06-27T09:48:13.463Z,64.60
2018-06-27T09:50:42.506Z,64.70
2018-06-27T09:53:11.484Z,64.50
2018-06-27T09:55:40.600Z,64.40
2018-06-27T10:00:38.199Z,63.30
2018-06-27T10:03:08.189Z,63.70
2018-06-27T10:05:37.746Z,63.80
2018-06-27T10:08:07.253Z,63.90
2018-06-27T10:10:36.270Z,63.80
2018-06-27T10:13:05.352Z,61.30
2018-06-27T10:15:34.326Z,60.00
2018-06-27T10:18:03.324Z,61.30
2018-06-27T10:20:32.281Z,62.20
2018-06-27T10:23:01.254Z,61.80
2018-06-27T10:25:30.246Z,62.80
2018-06-27T10:27:59.235Z,62.20
2018-06-27T10:30:28.248Z,62.30
2018-06-27T10:32:57.570Z,62.10
2018-06-27T10:35:26.650Z,63.30
2018-06-27T10:37:55.690Z,63.00
2018-06-27T10:40:24.698Z,59.90
2018-06-27T10:42:53.770Z,59.30
2018-06-27T10:45:22.762Z,59.20
2018-06-27T10:47:51.872Z,60.10
2018-06-27T10:50:20.835Z,58.90
2018-06-27T10:55:20.477Z,59.10
2018-06-27T10:57:49.616Z,58.80
2018-06-27T11:00:18.602Z,57.90
2018-06-27T11:02:47.664Z,59.30
2018-06-27T11:05:16.653Z,59.30
2018-06-27T11:07:45.710Z,58.80
2018-06-27T11:10:14.717Z,58.50
2018-06-27T11:12:43.686Z,59.50
2018-06-27T11:15:12.686Z,57.90
2018-06-27T11:17:41.799Z,56.50
2018-06-27T11:20:10.921Z,56.30
2018-06-27T11:22:39.998Z,57.00
2018-06-27T11:25:09.030Z,56.70
2018-06-27T11:27:38.046Z,58.30
2018-06-27T11:30:07.022Z,58.00
2018-06-27T11:32:35.989Z,56.90
2018-06-27T11:35:05.014Z,58.60
2018-06-27T11:37:34.864Z,57.80
2018-06-27T11:40:03.925Z,58.20
2018-06-27T11:42:32.906Z,56.50
2018-06-27T11:45:01.945Z,58.00
2018-06-27T11:47:30.934Z,54.80
2018-06-27T11:49:59.963Z,56.20
2018-06-27T11:52:28.959Z,57.70
2018-06-27T11:55:03.573Z,58.30
2018-06-27T11:57:32.662Z,55.30
2018-06-27T12:00:01.630Z,55.70
2018-06-27T12:02:30.623Z,55.30
2018-06-27T12:04:59.614Z,56.50
2018-06-27T12:07:28.653Z,55.20
2018-06-27T12:09:57.672Z,54.70
2018-06-27T12:12:26.677Z,56.60
2018-06-27T12:14:55.822Z,55.50
2018-06-27T12:17:24.936Z,57.50
2018-06-27T12:19:53.917Z,57.50
2018-06-27T12:22:23.031Z,55.80
2018-06-27T12:24:52.034Z,56.20
2018-06-27T12:27:21.111Z,54.20
2018-06-27T12:29:50.093Z,55.30
2018-06-27T12:32:19.117Z,56.20
2018-06-27T12:34:48.082Z,54.90
2018-06-27T12:37:17.123Z,56.10
2018-06-27T12:39:46.121Z,55.90
2018-06-27T12:42:15.100Z,52.40
2018-06-27T12:44:44.064Z,52.70
2018-06-27T12:47:13.077Z,53.00
2018-06-27T12:49:42.154Z,53.40
2018-06-27T12:52:11.174Z,53.90
2018-06-27T12:54:40.125Z,54.30
2018-06-27T12:57:09.237Z,53.90
2018-06-27T12:59:38.344Z,54.00
2018-06-27T13:02:07.718Z,53.70
2018-06-27T13:04:36.812Z,53.60
2018-06-27T13:07:05.776Z,52.30
2018-06-27T13:09:34.781Z,52.80
2018-06-27T13:12:03.776Z,53.50
2018-06-27T13:14:32.746Z,53.30
2018-06-27T13:17:01.787Z,51.60
2018-06-27T13:19:30.890Z,51.90
2018-06-27T13:22:00.029Z,51.00
2018-06-27T13:24:29.019Z,51.50
2018-06-27T13:26:58.040Z,49.70
2018-06-27T13:31:55.800Z,51.00
2018-06-27T13:34:24.814Z,50.60
2018-06-27T13:36:53.841Z,50.70
2018-06-27T13:39:22.868Z,49.70
2018-06-27T13:41:51.934Z,50.70
2018-06-27T13:44:20.886Z,51.20
2018-06-27T13:46:49.857Z,52.60
2018-06-27T13:49:18.913Z,51.60
2018-06-27T13:51:47.906Z,52.60
2018-06-27T13:54:16.890Z,50.50
2018-06-27T13:56:45.908Z,51.20
2018-06-27T13:59:14.985Z,51.30
2018-06-27T14:01:43.954Z,48.30
2018-06-27T14:04:13.531Z,49.00
2018-06-27T14:06:42.548Z,45.70
2018-06-27T14:09:11.580Z,46.60
2018-06-27T14:11:40.558Z,45.20
2018-06-27T14:14:09.530Z,47.10
2018-06-27T14:16:38.520Z,46.50
2018-06-27T14:19:07.510Z,47.50
2018-06-27T14:21:36.628Z,48.70
2018-06-27T14:24:05.825Z,48.20
2018-06-27T14:26:34.762Z,48.20
2018-06-27T14:29:03.806Z,47.70
2018-06-27T14:31:32.970Z,46.90
2018-06-27T14:34:02.228Z,46.90
2018-06-27T14:36:31.189Z,47.30
2018-06-27T14:39:00.237Z,47.00
2018-06-27T14:41:29.230Z,45.50
2018-06-27T14:43:58.274Z,44.60
2018-06-27T14:46:27.257Z,45.20
2018-06-27T14:48:56.282Z,45.00
2018-06-27T14:51:25.337Z,45.90
2018-06-27T14:53:54.367Z,45.50
2018-06-27T14:56:23.659Z,44.50
2018-06-27T14:58:52.659Z,45.80
2018-06-27T15:01:21.717Z,44.90
2018-06-27T15:03:50.697Z,45.70
2018-06-27T15:06:19.758Z,46.60
2018-06-27T15:08:49.057Z,45.60
2018-06-27T15:11:18.102Z,47.10
2018-06-27T15:13:47.220Z,46.10
2018-06-27T15:16:16.240Z,45.00
2018-06-27T15:18:45.314Z,46.40
2018-06-27T15:21:14.316Z,44.20
2018-06-27T15:23:43.396Z,45.00
2018-06-27T15:26:12.341Z,42.70
2018-06-27T15:28:41.373Z,44.70
2018-06-27T15:31:10.454Z,40.90
2018-06-27T15:33:39.524Z,42.00
2018-06-27T15:36:08.493Z,41.50
2018-06-27T15:38:37.549Z,41.90
2018-06-27T15:41:08.319Z,42.50
2018-06-27T15:43:37.326Z,43.00
2018-06-27T15:46:06.377Z,42.20
2018-06-27T15:48:35.510Z,43.40
2018-06-27T15:51:04.561Z,40.90
2018-06-27T15:53:33.698Z,43.40
2018-06-27T15:56:02.807Z,41.40
2018-06-27T15:58:31.841Z,40.50
2018-06-27T16:01:00.914Z,40.90
2018-06-27T16:03:29.979Z,40.80
2018-06-27T16:05:58.964Z,39.70
2018-06-27T16:08:27.971Z,40.60
2018-06-27T16:10:57.037Z,40.00
2018-06-27T16:13:26.009Z,41.20
2018-06-27T16:15:55.029Z,39.20
2018-06-27T16:18:24.076Z,42.30
2018-06-27T16:20:53.169Z,39.20
2018-06-27T16:23:22.165Z,41.50
2018-06-27T16:25:51.328Z,40.10
2018-06-27T16:28:20.422Z,40.10
2018-06-27T16:30:49.495Z,41.00
2018-06-27T16:33:18.516Z,41.60
2018-06-27T16:35:47.559Z,40.40
2018-06-27T16:38:16.563Z,39.80
2018-06-27T16:40:45.597Z,41.60
2018-06-27T16:43:14.663Z,42.50
2018-06-27T16:45:43.786Z,40.80
2018-06-27T16:48:12.806Z,41.20
2018-06-27T16:50:41.966Z,41.80
2018-06-27T16:53:10.905Z,39.80
2018-06-27T16:55:39.876Z,42.60
2018-06-27T16:58:08.894Z,42.00
2018-06-27T17:00:38.569Z,38.50
2018-06-27T17:03:07.544Z,39.40
2018-06-27T17:05:36.555Z,40.10
2018-06-27T17:08:05.852Z,42.10
2018-06-27T17:10:34.906Z,39.80
2018-06-27T17:13:03.972Z,40.30
2018-06-27T17:15:32.956Z,40.90
2018-06-27T17:18:01.964Z,39.00
2018-06-27T17:20:31.008Z,39.60
2018-06-27T17:23:00.038Z,42.00
2018-06-27T17:25:29.026Z,41.50
2018-06-27T17:27:58.061Z,41.40
2018-06-27T17:30:27.076Z,40.70
2018-06-27T17:32:56.080Z,41.10
2018-06-27T17:35:25.125Z,42.00
2018-06-27T17:37:54.095Z,42.20
2018-06-27T17:40:23.106Z,40.50
2018-06-27T17:42:52.134Z,40.60
2018-06-27T17:45:21.106Z,40.90
2018-06-27T17:47:50.104Z,41.80
2018-06-27T17:50:19.150Z,40.80
2018-06-27T17:52:48.144Z,39.70
2018-06-27T17:55:17.238Z,41.00
2018-06-27T17:57:46.206Z,40.00
2018-06-27T18:00:15.310Z,41.30
2018-06-27T18:02:44.358Z,39.70
2018-06-27T18:05:13.362Z,40.80
2018-06-27T18:07:42.376Z,40.70
2018-06-27T18:10:11.424Z,41.20
2018-06-27T18:12:40.536Z,40.90
2018-06-27T18:15:09.547Z,41.80
2018-06-27T18:17:38.613Z,42.20
2018-06-27T18:20:07.606Z,41.90
2018-06-27T18:22:36.598Z,42.30
2018-06-27T18:25:05.950Z,41.40
2018-06-27T18:27:35.072Z,42.30
2018-06-27T18:30:04.374Z,41.60
2018-06-27T18:32:33.462Z,42.40
2018-06-27T18:35:02.481Z,42.50
2018-06-27T18:37:31.542Z,42.80
2018-06-27T18:40:00.554Z,43.00
2018-06-27T18:42:29.604Z,43.40
2018-06-27T18:44:59.066Z,43.50
2018-06-27T18:47:28.126Z,43.20
2018-06-27T18:49:57.127Z,43.30
2018-06-27T18:52:26.431Z,43.70
2018-06-27T18:54:55.461Z,44.00
2018-06-27T18:57:25.289Z,43.90
2018-06-27T18:59:54.433Z,43.60
2018-06-27T19:02:23.512Z,43.80
2018-06-27T19:04:52.569Z,44.30
2018-06-27T19:07:21.629Z,43.50
2018-06-27T19:09:51.645Z,44.00
2018-06-27T19:12:20.669Z,43.90
2018-06-27T19:14:49.669Z,43.70
2018-06-27T19:17:18.719Z,43.70
2018-06-27T19:19:47.686Z,43.70
2018-06-27T19:22:16.893Z,44.00
2018-06-27T19:27:14.561Z,44.30
2018-06-27T19:29:43.567Z,44.40
2018-06-27T19:32:13.891Z,45.20
2018-06-27T19:37:11.965Z,45.20
2018-06-27T19:39:40.937Z,45.30
2018-06-27T19:42:10.057Z,45.50
2018-06-27T19:44:39.103Z,45.60
2018-06-27T19:47:08.285Z,45.60
2018-06-27T19:49:37.318Z,45.60
2018-06-27T19:52:06.305Z,45.90
2018-06-27T19:54:35.393Z,45.80
2018-06-27T19:57:04.399Z,46.30
2018-06-27T19:59:33.450Z,46.50
2018-06-27T20:02:02.494Z,46.30
2018-06-27T20:04:31.470Z,46.40
2018-06-27T20:07:00.462Z,46.60
2018-06-27T20:09:29.567Z,46.60
2018-06-27T20:11:58.559Z,46.30
2018-06-27T20:14:27.669Z,46.80
2018-06-27T20:16:56.583Z,46.60
2018-06-27T20:19:25.586Z,46.40
2018-06-27T20:21:54.676Z,46.80
2018-06-27T20:24:23.660Z,46.20
2018-06-27T20:26:52.668Z,46.20
2018-06-27T20:29:21.722Z,47.60
2018-06-27T20:31:50.698Z,47.60
2018-06-27T20:34:19.698Z,47.40
2018-06-27T20:36:48.717Z,47.40
2018-06-27T20:39:17.696Z,47.20
2018-06-27T20:41:46.698Z,46.90
2018-06-27T20:44:15.715Z,47.40
2018-06-27T20:46:44.743Z,47.20
2018-06-27T20:49:13.726Z,47.50
2018-06-27T20:51:42.725Z,46.70
2018-06-27T20:54:11.820Z,47.00
2018-06-27T20:56:40.794Z,47.30
2018-06-27T20:59:09.808Z,46.60
2018-06-27T21:01:38.806Z,46.80
2018-06-27T21:04:07.895Z,46.70
2018-06-27T21:06:36.863Z,46.90
2018-06-27T21:09:07.974Z,46.80
2018-06-27T21:11:37.017Z,47.30
2018-06-27T21:14:06.207Z,47.00
2018-06-27T21:16:35.172Z,47.50
2018-06-27T21:19:04.162Z,47.60
2018-06-27T21:21:33.172Z,47.80
2018-06-27T21:24:02.198Z,47.70
2018-06-27T21:26:31.185Z,48.00
2018-06-27T21:29:00.288Z,47.80
2018-06-27T21:31:29.577Z,48.10
2018-06-27T21:33:58.621Z,47.90
2018-06-27T21:36:27.589Z,48.30
2018-06-27T21:38:56.671Z,48.00
2018-06-27T21:41:25.687Z,48.10
2018-06-27T21:43:54.795Z,48.20
2018-06-27T21:46:23.751Z,48.30
2018-06-27T21:48:52.729Z,48.80
2018-06-27T21:51:21.743Z,47.80
2018-06-27T21:53:50.835Z,48.10
2018-06-27T21:56:19.829Z,47.70
2018-06-27T21:58:48.820Z,48.20
2018-06-27T22:01:17.837Z,47.30
2018-06-27T22:03:46.893Z,47.80
2018-06-27T22:06:15.902Z,48.60
2018-06-27T22:08:44.874Z,49.00
2018-06-27T22:11:13.889Z,48.60
2018-06-27T22:13:42.913Z,48.80
2018-06-27T22:16:11.901Z,48.10
2018-06-27T22:18:40.910Z,48.50
2018-06-27T22:21:09.895Z,48.50
2018-06-27T22:23:38.890Z,48.70
2018-06-27T22:26:07.869Z,48.70
2018-06-27T22:28:36.865Z,47.80
2018-06-27T22:31:06.096Z,47.60
2018-06-27T22:33:35.344Z,47.40
2018-06-27T22:36:04.537Z,47.50
2018-06-27T22:38:33.717Z,47.60
2018-06-27T22:41:02.891Z,47.40
2018-06-27T22:48:29.437Z,47.50
2018-06-27T22:50:58.410Z,48.10
2018-06-27T22:53:27.904Z,48.80
2018-06-27T22:55:57.000Z,49.50
2018-06-27T22:58:25.946Z,48.30
2018-06-27T23:00:55.296Z,48.60
2018-06-27T23:03:24.456Z,48.50
2018-06-27T23:05:53.454Z,49.80
2018-06-27T23:08:22.474Z,49.90
2018-06-27T23:10:51.640Z,50.30
2018-06-27T23:13:20.634Z,49.20
2018-06-27T23:15:49.746Z,50.10
2018-06-27T23:18:18.724Z,50.70
2018-06-27T23:20:47.751Z,49.80
2018-06-27T23:23:16.798Z,50.60
2018-06-27T23:25:45.793Z,49.60
2018-06-27T23:28:14.830Z,49.40
2018-06-27T23:30:43.786Z,51.70
2018-06-27T23:33:12.760Z,50.60
2018-06-27T23:35:41.772Z,51.20
2018-06-27T23:38:10.769Z,50.30
2018-06-27T23:40:39.760Z,52.30
2018-06-27T23:43:08.722Z,52.00
2018-06-27T23:45:37.752Z,51.00
2018-06-27T23:48:06.782Z,52.70
2018-06-27T23:50:35.759Z,51.90
2018-06-27T23:53:04.766Z,52.70
2018-06-27T23:55:33.760Z,52.50
2018-06-27T23:58:02.737Z,52.40
